Aviation Digital Data Service (ADDS)

Output produced by METARs form (0619 UTC 19 February 2019)
found at http://www.aviationweather.gov/metar/data/
 
Forecast for: CYMX (MONTREAL/MIRABEL, QC, CA)
Text: TAF CYMX 190538Z 1906/2006 27005KT P6SM FEW030
Forecast period: 0600 to 1300 UTC 19 February 2019
Forecast type: FROM: standard forecast or significant change
Winds: from the W (270 degrees) at 6 MPH (5 knots; 2.6 m/s)
Visibility: 6 or more miles 10+ km)
Ceiling: at least 12,000 feet AGL
Clouds: few clouds at 3000 feet AGL
Weather: no significant weather forecast for this period
Text: BECMG 1913/1915 25008G18KT
Forecast period: 1300 to 2200 UTC 19 February 2019
Forecast type: BECOMING: Conditions expected to become as follows by 1500 UTC 19 February 2019
Winds: from the WSW (250 degrees) at 9 MPH (8 knots; 4.1 m/s)
gusting to 21 MPH (18 knots; 9.3 m/s)
Visibility: 6 or more miles 10+ km)
Ceiling: at least 12,000 feet AGL
Clouds: few clouds at 3000 feet AGL
Weather: no significant weather forecast for this period
Text: BECMG 1922/1924 25005KT RMK NXT FCST BY 191200Z
Forecast period: 2200 UTC 19 February 2019 to 0600 UTC 20 February 2019
Forecast type: BECOMING: Conditions expected to become as follows by 0000 UTC 20 February 2019
Winds: from the WSW (250 degrees) at 6 MPH (5 knots; 2.6 m/s)
Visibility: 6 or more miles 10+ km)
Ceiling: at least 12,000 feet AGL
Clouds: few clouds at 3000 feet AGL
Weather: no significant weather forecast for this period